TimeCST,TemperatureF,Dew PointF,Humidity,Sea Level PressureIn,VisibilityMPH,Wind Direction,Wind SpeedMPH,Gust SpeedMPH,PrecipitationIn,Events,Conditions,WindDirDegrees,DateUTC
12:55 AM,18.0,10.0,71,30.48,10.0,NE,10.4,-,N/A,,Clear,40,2013-01-24 06:55:00
1:55 AM,16.0,8.1,71,30.48,10.0,NE,11.5,-,N/A,,Clear,50,2013-01-24 07:55:00
2:55 AM,14.0,6.1,71,30.47,10.0,ENE,13.8,-,N/A,,Clear,60,2013-01-24 08:55:00
3:55 AM,12.9,5.0,71,30.48,10.0,ENE,10.4,-,N/A,,Clear,60,2013-01-24 09:55:00
4:55 AM,12.0,3.9,70,30.45,10.0,ENE,11.5,17.3,N/A,,Clear,70,2013-01-24 10:55:00
5:55 AM,10.9,3.9,73,30.48,10.0,North,-9999.0,-,N/A,,Clear,0,2013-01-24 11:55:00
6:55 AM,10.0,1.9,70,30.49,10.0,North,-9999.0,-,N/A,,Clear,0,2013-01-24 12:55:00
7:55 AM,8.1,-0.0,70,30.48,10.0,North,-9999.0,-,N/A,,Clear,0,2013-01-24 13:55:00
8:55 AM,8.1,-0.0,70,30.49,10.0,East,10.4,32.2,N/A,,Clear,90,2013-01-24 14:55:00
9:55 AM,10.0,1.0,67,30.50,10.0,East,9.2,-,N/A,,Clear,90,2013-01-24 15:55:00
10:55 AM,12.9,1.0,59,30.47,10.0,East,9.2,-,N/A,,Clear,80,2013-01-24 16:55:00
11:55 AM,17.1,1.0,50,30.42,10.0,ESE,9.2,19.6,N/A,,Clear,110,2013-01-24 17:55:00
12:55 PM,19.0,1.0,46,30.39,10.0,Variable,6.9,-,N/A,,Clear,0,2013-01-24 18:55:00
1:55 PM,21.9,1.9,42,30.32,10.0,SE,9.2,-,N/A,,Overcast,130,2013-01-24 19:55:00
2:55 PM,24.1,1.0,37,30.27,10.0,ESE,9.2,-,N/A,,Overcast,120,2013-01-24 20:55:00
3:53 PM,24.8,1.4,36,30.19,10.0,SE,6.9,-,N/A,,Overcast,130,2013-01-24 21:53:00
3:55 PM,24.1,1.9,38,30.25,10.0,SE,9.2,-,N/A,,Overcast,130,2013-01-24 21:55:00
4:55 PM,24.1,1.9,38,30.22,10.0,SE,10.4,-,N/A,,Overcast,130,2013-01-24 22:55:00
5:55 PM,24.1,3.0,40,30.22,10.0,ESE,4.6,-,N/A,,Overcast,120,2013-01-24 23:55:00
6:55 PM,24.1,3.0,40,30.24,10.0,SE,4.6,-,N/A,,Overcast,130,2013-01-25 00:55:00
7:55 PM,24.1,3.9,42,30.22,10.0,SE,8.1,-,N/A,,Overcast,130,2013-01-25 01:55:00
8:55 PM,24.1,3.9,42,30.22,10.0,SE,3.5,-,N/A,,Overcast,130,2013-01-25 02:55:00
9:55 PM,25.0,5.0,43,30.21,10.0,Calm,Calm,-,N/A,,Overcast,0,2013-01-25 03:55:00
10:55 PM,25.0,6.1,45,30.20,10.0,SW,3.5,-,N/A,,Overcast,220,2013-01-25 04:55:00
11:55 PM,25.0,8.1,49,30.23,10.0,Calm,Calm,-,N/A,,Overcast,0,2013-01-25 05:55:00